Abraham Lincoln Capital Airport
KSPI : now visible

Airfield :











YOU CAN JOIN US ON...

 
LOGIN :

Register | Disclaimer

   EN    FR    IT 

 









Legend :    VFR   Marginal VFR   IFR   Intensive IFR   Very Intensive IFR
Visi :
Ceiling :
>= 8 km
>= 3000ft
5 to 8 km
1000 to 3000 ft
1500m to 5 km
500 to 1000 ft
800 to 1500m
200 to 500 ft
< 800m
< 200 ft
Symbols :   Thunderstorms  Fog  Heavy snow  Heavy precipitations  Wind > 20 kt






- Airport Elevation : 598 ft
- IATA code : SPI


KSPI - Abraham Lincoln Capital

CURRENT METAR :
  • 211652Z 19018G23KT 10SM CLR 30/18 A2975 RMK AO2 SLPNO T03000178 PNO $

EXPIRED METARs :
  • 211559Z 19018G23KT 10SM CLR 30/18 A2976 RMK AO2 T03000178 PNO $
  • 211452Z 19012G18KT 10SM CLR 28/19 A2979 RMK AO2 SLP083 T02780189 55006 $
  • 211352Z 18010KT 10SM CLR 24/18 A2979 RMK AO2 SLP082 T02390178 $
  • 211252Z 17009KT 10SM CLR 22/18 A2981 RMK AO2 SLP091 T02220178 $

TAF KSPI
Valid from the 21 at 12:00 until the 22 at 12:00 UTC


211120Z 2112/2212 18007KT P6SM SCT250
FM211500 17016G27KT P6SM FEW250
FM211800 19023G33KT P6SM SCT050 SCT120
TEMPO 2202/2205 23020G40KT 2SM TSRA BKN025CB
FM220500 25011KT P6SM SCT050 AMD NOT SKED 2204/2211
KZKC FIR / North America



MET'MAP, your aeronautical weather chart ! - Copyright ORBIFLY December 2007 - Disclaimer

ORBIFLY MET'MAP TEAM :

Programming & Development : Alexandra Zaïnal
Original concept : Baudouin d'Aumeries
Technical & hardware support : Manuel Goepfert
Assistance : Marc-Olivier Méhu




SOURCES & CREDITS :

   NOAA       Earth
Advisory